Active — NRTF — position and weather

sailwx.info

Track history (hours):
 
Tides and Currents Weather Stations Pressure Air Temp Water Temp Dewpoint Dewpoint Depression Visibility Wind Speed Wind Dir Waves Ship Positions

Active

Last reported at 2018-Apr-17 04:11 UTC. Time now 2018-May-22 17:13 UTC.
Position N 32°27' W 117°37'.
Warning: this ship's position is 35 days out of date.

Type: Law enforcement. MMSI: 367269000.

Date/timePositionNaut miles runAvg speedWind from/ knotsBaromVisibWave heightAir tempDewpointWater temp
2018-Apr-17 04:11N 32°27' W 117°37'314.4
2018-Apr-17 04:00N 32°29' W 117°37'713.7
2018-Apr-17 03:30N 32°35' W 117°32'510.9
2018-Apr-17 03:00N 32°36' W 117°26'15 0.5
2018-Apr-15 23:52N 32°42' W 117°10'6 1.8
2018-Apr-15 20:43N 32°38' W 117°14'312.6
2018-Apr-15 20:30N 32°38' W 117°17'5 9.5
2018-Apr-15 19:59N 32°40' W 117°22'713.6
2018-Apr-15 19:30N 32°45' W 117°27'714.6
2018-Apr-15 19:00N 32°51' W 117°33'611.4
2018-Apr-15 18:30N 32°55' W 117°38'713.1
2018-Apr-15 18:00N 32°60' W 117°43'612.2
2018-Apr-15 17:30N 33°04' W 117°48'612.5
2018-Apr-15 17:00N 33°09' W 117°53'3 6.6
2018-Apr-15 16:30N 33°11' W 117°56'1 2.4
2018-Apr-15 16:00N 33°12' W 117°56'1 1.9
2018-Apr-15 15:30N 33°11' W 117°56'0 0.5
2018-Apr-15 15:00N 33°11' W 117°56'0 0.5
2018-Apr-15 14:29N 33°11' W 117°57'3 6.5
2018-Apr-15 14:00N 33°13' W 117°60'3 5.1
2018-Apr-15 13:29N 33°11' W 117°57'0 0.6
2018-Apr-15 13:00N 33°11' W 117°58'10 9.3
2018-Apr-15 11:52N 33°06' W 118°08'2 6.1
2018-Apr-15 11:30N 33°04' W 118°10'3 5.2
2018-Apr-15 11:01N 33°04' W 118°13'713.2
2018-Apr-15 10:30N 33°07' W 118°20'814.1
2018-Apr-15 09:58N 33°10' W 118°28'713.9
2018-Apr-15 09:30N 33°13' W 118°35'713.9
2018-Apr-15 08:59N 33°15' W 118°43'713.7
2018-Apr-15 08:30N 33°17' W 118°51'813.7
2018-Apr-15 07:57N 33°19' W 118°59'613.8
2018-Apr-15 07:30N 33°21' W 119°07'713.4
2018-Apr-15 07:00N 33°23' W 119°14'3 6.8
2018-Apr-15 06:30N 33°25' W 119°17'3 6.8
2018-Apr-15 06:00N 33°27' W 119°20'3 6.7
2018-Apr-15 05:30N 33°30' W 119°23'3 6.6
2018-Apr-15 05:00N 33°32' W 119°26'3 6.3
2018-Apr-15 04:30N 33°34' W 119°28'4 6.6
2018-Apr-15 03:58N 33°37' W 119°31'3 7.0
2018-Apr-15 03:30N 33°39' W 119°34'4 7.3
2018-Apr-15 02:59N 33°42' W 119°37'4 7.5
2018-Apr-15 02:30N 33°45' W 119°40'4 7.5
2018-Apr-15 02:00N 33°48' W 119°43'4 7.3
2018-Apr-15 01:28N 33°50' W 119°46'3 6.8
2018-Apr-15 01:00N 33°53' W 119°49'3 6.6
2018-Apr-15 00:30N 33°55' W 119°52'4 7.7
2018-Apr-15 00:00N 33°58' W 119°55'714.2
2018-Apr-14 23:30N 34°04' W 119°59'713.1
2018-Apr-14 23:00N 34°07' W 120°07'714.1
2018-Apr-14 22:29N 34°08' W 120°15'510.2
2018-Apr-14 22:00N 34°08' W 120°21'814.4
2018-Apr-14 21:28N 34°11' W 120°30'815.3
2018-Apr-14 20:59N 34°15' W 120°37'715.3
2018-Apr-14 20:30N 34°20' W 120°45'815.7
2018-Apr-14 20:00N 34°25' W 120°52'815.5
2018-Apr-14 19:29N 34°31' W 120°58'815.6
2018-Apr-14 19:00N 34°36' W 121°04'815.8
2018-Apr-14 18:30N 34°42' W 121°10'1015.2
2018-Apr-14 17:52N 34°49' W 121°18'514.6
2018-Apr-14 17:30N 34°54' W 121°23'714.4
2018-Apr-14 17:00N 34°59' W 121°28'715.0
2018-Apr-14 16:30N 35°05' W 121°34'12215.0
2018-Apr-14 08:22N 36°50' W 122°50'915.3
2018-Apr-14 07:48N 36°58' W 122°54'515.3
2018-Apr-14 07:30N 37°02' W 122°57'815.3
2018-Apr-14 07:00N 37°09' W 123°01'815.4
2018-Apr-14 06:30N 37°16' W 123°04'815.3
2018-Apr-14 06:00N 37°24' W 123°07'815.4
2018-Apr-14 05:30N 37°31' W 123°11'815.4
2018-Apr-14 04:59N 37°38' W 123°14'715.1
2018-Apr-14 04:30N 37°44' W 123°19'915.1
2018-Apr-14 03:56N 37°51' W 123°26'715.5
2018-Apr-14 03:30N 37°57' W 123°31'815.7
2018-Apr-14 03:00N 38°04' W 123°34'815.4
2018-Apr-14 02:30N 38°11' W 123°37'715.3
2018-Apr-14 02:00N 38°18' W 123°40'815.3
2018-Apr-14 01:30N 38°26' W 123°43'915.4
2018-Apr-14 00:57N 38°34' W 123°47'1015.3
2018-Apr-14 00:19N 38°43' W 123°51'39114.4
2018-Apr-12 21:08N 45°13' W 124°20'314.1
2018-Apr-12 20:58N 45°16' W 124°19'614.2
2018-Apr-12 20:30N 45°22' W 124°16'714.3
2018-Apr-12 19:59N 45°29' W 124°13'714.5
2018-Apr-12 19:30N 45°36' W 124°13'510.1
2018-Apr-12 19:00N 45°41' W 124°14'714.8
2018-Apr-12 18:30N 45°48' W 124°16'815.0
2018-Apr-12 18:00N 45°55' W 124°18'714.7
2018-Apr-12 17:30N 46°03' W 124°20'714.6
2018-Apr-12 17:00N 46°10' W 124°20'714.2
2018-Apr-12 16:30N 46°17' W 124°21'713.6
2018-Apr-12 16:00N 46°24' W 124°21'714.2
2018-Apr-12 15:31N 46°31' W 124°23'714.3
2018-Apr-12 15:01N 46°38' W 124°25'714.5
2018-Apr-12 14:31N 46°45' W 124°27'714.2
2018-Apr-12 14:00N 46°52' W 124°29'714.3
2018-Apr-12 13:30N 46°59' W 124°31'7813.8
2018-Apr-12 07:51N 48°15' W 124°58'512.6
2018-Apr-12 07:28N 48°20' W 124°58'511.9
2018-Apr-12 07:00N 48°24' W 124°52'611.2
2018-Apr-12 06:30N 48°27' W 124°45'612.0
2018-Apr-12 06:00N 48°24' W 124°37'713.3
2018-Apr-12 05:30N 48°22' W 124°28'611.3
2018-Apr-12 05:01N 48°18' W 124°21'4 7.8
2018-Apr-12 04:29N 48°17' W 124°15'4 7.9
2018-Apr-12 04:00N 48°16' W 124°10'4 7.6
2018-Apr-12 03:29N 48°14' W 124°04'6 7.6
2018-Apr-12 02:45N 48°12' W 123°56'2 0.9
2018-Apr-12 00:58N 48°13' W 123°58'0 0.4
2018-Apr-12 00:29N 48°13' W 123°58'2 0.2
2018-Apr-11 14:25N 48°13' W 123°55'4 6.1
2018-Apr-11 13:49N 48°15' W 124°00'2 5.6
2018-Apr-11 13:29N 48°16' W 124°03'3 6.0
2018-Apr-11 13:00N 48°17' W 124°07'3 6.3
2018-Apr-11 12:29N 48°18' W 124°11'3 6.3
2018-Apr-11 12:00N 48°20' W 124°15'3 6.3
2018-Apr-11 11:30N 48°21' W 124°20'3 6.4
2018-Apr-11 11:00N 48°22' W 124°24'3 6.3
2018-Apr-11 10:30N 48°24' W 124°28'2 3.8
2018-Apr-11 10:00N 48°25' W 124°25'2 4.7
2018-Apr-11 09:30N 48°24' W 124°22'2 4.4
2018-Apr-11 09:00N 48°23' W 124°19'2 4.6
2018-Apr-11 08:30N 48°22' W 124°15'3 5.3
2018-Apr-11 08:00N 48°21' W 124°12'3 5.1
2018-Apr-11 07:29N 48°20' W 124°08'3 5.4
2018-Apr-11 07:00N 48°19' W 124°05'3 5.2
2018-Apr-11 06:24N 48°18' W 124°00'2 5.2
2018-Apr-11 06:00N 48°17' W 123°57'  
Track history (hours):
 
Tides and Currents Weather Stations Pressure Air Temp Water Temp Dewpoint Dewpoint Depression Visibility Wind Speed Wind Dir Waves Ship Positions

Active

Last reported at 2018-Apr-17 04:11 UTC. Time now 2018-May-22 17:13 UTC.
Position N 32°27' W 117°37'.
Warning: this ship's position is 35 days out of date.

Type: Law enforcement. MMSI: 367269000.

Date/timePositionNaut miles runAvg speedWind from/ knotsBaromVisibWave heightAir tempDewpointWater temp
2018-Apr-17 04:11N 32°27' W 117°37'314.4
2018-Apr-17 04:00N 32°29' W 117°37'713.7
2018-Apr-17 03:30N 32°35' W 117°32'510.9
2018-Apr-17 03:00N 32°36' W 117°26'15 0.5
2018-Apr-15 23:52N 32°42' W 117°10'6 1.8
2018-Apr-15 20:43N 32°38' W 117°14'312.6
2018-Apr-15 20:30N 32°38' W 117°17'5 9.5
2018-Apr-15 19:59N 32°40' W 117°22'713.6
2018-Apr-15 19:30N 32°45' W 117°27'714.6
2018-Apr-15 19:00N 32°51' W 117°33'611.4
2018-Apr-15 18:30N 32°55' W 117°38'713.1
2018-Apr-15 18:00N 32°60' W 117°43'612.2
2018-Apr-15 17:30N 33°04' W 117°48'612.5
2018-Apr-15 17:00N 33°09' W 117°53'3 6.6
2018-Apr-15 16:30N 33°11' W 117°56'1 2.4
2018-Apr-15 16:00N 33°12' W 117°56'1 1.9
2018-Apr-15 15:30N 33°11' W 117°56'0 0.5
2018-Apr-15 15:00N 33°11' W 117°56'0 0.5
2018-Apr-15 14:29N 33°11' W 117°57'3 6.5
2018-Apr-15 14:00N 33°13' W 117°60'3 5.1
2018-Apr-15 13:29N 33°11' W 117°57'0 0.6
2018-Apr-15 13:00N 33°11' W 117°58'10 9.3
2018-Apr-15 11:52N 33°06' W 118°08'2 6.1
2018-Apr-15 11:30N 33°04' W 118°10'3 5.2
2018-Apr-15 11:01N 33°04' W 118°13'713.2
2018-Apr-15 10:30N 33°07' W 118°20'814.1
2018-Apr-15 09:58N 33°10' W 118°28'713.9
2018-Apr-15 09:30N 33°13' W 118°35'713.9
2018-Apr-15 08:59N 33°15' W 118°43'713.7
2018-Apr-15 08:30N 33°17' W 118°51'813.7
2018-Apr-15 07:57N 33°19' W 118°59'613.8
2018-Apr-15 07:30N 33°21' W 119°07'713.4
2018-Apr-15 07:00N 33°23' W 119°14'3 6.8
2018-Apr-15 06:30N 33°25' W 119°17'3 6.8
2018-Apr-15 06:00N 33°27' W 119°20'3 6.7
2018-Apr-15 05:30N 33°30' W 119°23'3 6.6
2018-Apr-15 05:00N 33°32' W 119°26'3 6.3
2018-Apr-15 04:30N 33°34' W 119°28'4 6.6
2018-Apr-15 03:58N 33°37' W 119°31'3 7.0
2018-Apr-15 03:30N 33°39' W 119°34'4 7.3
2018-Apr-15 02:59N 33°42' W 119°37'4 7.5
2018-Apr-15 02:30N 33°45' W 119°40'4 7.5
2018-Apr-15 02:00N 33°48' W 119°43'4 7.3
2018-Apr-15 01:28N 33°50' W 119°46'3 6.8
2018-Apr-15 01:00N 33°53' W 119°49'3 6.6
2018-Apr-15 00:30N 33°55' W 119°52'4 7.7
2018-Apr-15 00:00N 33°58' W 119°55'714.2
2018-Apr-14 23:30N 34°04' W 119°59'713.1
2018-Apr-14 23:00N 34°07' W 120°07'714.1
2018-Apr-14 22:29N 34°08' W 120°15'510.2
2018-Apr-14 22:00N 34°08' W 120°21'814.4
2018-Apr-14 21:28N 34°11' W 120°30'815.3
2018-Apr-14 20:59N 34°15' W 120°37'715.3
2018-Apr-14 20:30N 34°20' W 120°45'815.7
2018-Apr-14 20:00N 34°25' W 120°52'815.5
2018-Apr-14 19:29N 34°31' W 120°58'815.6
2018-Apr-14 19:00N 34°36' W 121°04'815.8
2018-Apr-14 18:30N 34°42' W 121°10'1015.2
2018-Apr-14 17:52N 34°49' W 121°18'514.6
2018-Apr-14 17:30N 34°54' W 121°23'714.4
2018-Apr-14 17:00N 34°59' W 121°28'715.0
2018-Apr-14 16:30N 35°05' W 121°34'12215.0
2018-Apr-14 08:22N 36°50' W 122°50'915.3
2018-Apr-14 07:48N 36°58' W 122°54'515.3
2018-Apr-14 07:30N 37°02' W 122°57'815.3
2018-Apr-14 07:00N 37°09' W 123°01'815.4
2018-Apr-14 06:30N 37°16' W 123°04'815.3
2018-Apr-14 06:00N 37°24' W 123°07'815.4
2018-Apr-14 05:30N 37°31' W 123°11'815.4
2018-Apr-14 04:59N 37°38' W 123°14'715.1
2018-Apr-14 04:30N 37°44' W 123°19'915.1
2018-Apr-14 03:56N 37°51' W 123°26'715.5
2018-Apr-14 03:30N 37°57' W 123°31'815.7
2018-Apr-14 03:00N 38°04' W 123°34'815.4
2018-Apr-14 02:30N 38°11' W 123°37'715.3
2018-Apr-14 02:00N 38°18' W 123°40'815.3
2018-Apr-14 01:30N 38°26' W 123°43'915.4
2018-Apr-14 00:57N 38°34' W 123°47'1015.3
2018-Apr-14 00:19N 38°43' W 123°51'39114.4
2018-Apr-12 21:08N 45°13' W 124°20'314.1
2018-Apr-12 20:58N 45°16' W 124°19'614.2
2018-Apr-12 20:30N 45°22' W 124°16'714.3
2018-Apr-12 19:59N 45°29' W 124°13'714.5
2018-Apr-12 19:30N 45°36' W 124°13'510.1
2018-Apr-12 19:00N 45°41' W 124°14'714.8
2018-Apr-12 18:30N 45°48' W 124°16'815.0
2018-Apr-12 18:00N 45°55' W 124°18'714.7
2018-Apr-12 17:30N 46°03' W 124°20'714.6
2018-Apr-12 17:00N 46°10' W 124°20'714.2
2018-Apr-12 16:30N 46°17' W 124°21'713.6
2018-Apr-12 16:00N 46°24' W 124°21'714.2
2018-Apr-12 15:31N 46°31' W 124°23'714.3
2018-Apr-12 15:01N 46°38' W 124°25'714.5
2018-Apr-12 14:31N 46°45' W 124°27'714.2
2018-Apr-12 14:00N 46°52' W 124°29'714.3
2018-Apr-12 13:30N 46°59' W 124°31'7813.8
2018-Apr-12 07:51N 48°15' W 124°58'512.6
2018-Apr-12 07:28N 48°20' W 124°58'511.9
2018-Apr-12 07:00N 48°24' W 124°52'611.2
2018-Apr-12 06:30N 48°27' W 124°45'612.0
2018-Apr-12 06:00N 48°24' W 124°37'713.3
2018-Apr-12 05:30N 48°22' W 124°28'611.3
2018-Apr-12 05:01N 48°18' W 124°21'4 7.8
2018-Apr-12 04:29N 48°17' W 124°15'4 7.9
2018-Apr-12 04:00N 48°16' W 124°10'4 7.6
2018-Apr-12 03:29N 48°14' W 124°04'6 7.6
2018-Apr-12 02:45N 48°12' W 123°56'2 0.9
2018-Apr-12 00:58N 48°13' W 123°58'0 0.4
2018-Apr-12 00:29N 48°13' W 123°58'2 0.2
2018-Apr-11 14:25N 48°13' W 123°55'4 6.1
2018-Apr-11 13:49N 48°15' W 124°00'2 5.6
2018-Apr-11 13:29N 48°16' W 124°03'3 6.0
2018-Apr-11 13:00N 48°17' W 124°07'3 6.3
2018-Apr-11 12:29N 48°18' W 124°11'3 6.3
2018-Apr-11 12:00N 48°20' W 124°15'3 6.3
2018-Apr-11 11:30N 48°21' W 124°20'3 6.4
2018-Apr-11 11:00N 48°22' W 124°24'3 6.3
2018-Apr-11 10:30N 48°24' W 124°28'2 3.8
2018-Apr-11 10:00N 48°25' W 124°25'2 4.7
2018-Apr-11 09:30N 48°24' W 124°22'2 4.4
2018-Apr-11 09:00N 48°23' W 124°19'2 4.6
2018-Apr-11 08:30N 48°22' W 124°15'3 5.3
2018-Apr-11 08:00N 48°21' W 124°12'3 5.1
2018-Apr-11 07:29N 48°20' W 124°08'3 5.4
2018-Apr-11 07:00N 48°19' W 124°05'3 5.2
2018-Apr-11 06:24N 48°18' W 124°00'2 5.2
2018-Apr-11 06:00N 48°17' W 123°57'  

Dump ship's entire track history